sensor_id;sensor_type;location;lat;lon;timestamp;temperature;humidity
22716;DHT22;11525;51.152;4.456;2023-03-16T00:02:13;7.40;99.90
22716;DHT22;11525;51.152;4.456;2023-03-16T00:04:39;7.40;99.90
22716;DHT22;11525;51.152;4.456;2023-03-16T00:07:07;7.50;99.90
22716;DHT22;11525;51.152;4.456;2023-03-16T00:09:33;7.60;99.90
22716;DHT22;11525;51.152;4.456;2023-03-16T00:12:00;7.50;99.90
22716;DHT22;11525;51.152;4.456;2023-03-16T00:14:30;7.50;99.90
22716;DHT22;11525;51.152;4.456;2023-03-16T00:16:56;7.60;99.90
22716;DHT22;11525;51.152;4.456;2023-03-16T00:19:22;7.60;99.90
22716;DHT22;11525;51.152;4.456;2023-03-16T00:21:51;7.70;99.90
22716;DHT22;11525;51.152;4.456;2023-03-16T00:24:18;7.80;99.90
22716;DHT22;11525;51.152;4.456;2023-03-16T00:26:45;7.90;99.90
22716;DHT22;11525;51.152;4.456;2023-03-16T00:29:11;7.70;99.90
22716;DHT22;11525;51.152;4.456;2023-03-16T00:31:38;7.70;99.90
22716;DHT22;11525;51.152;4.456;2023-03-16T00:34:04;7.60;99.90
22716;DHT22;11525;51.152;4.456;2023-03-16T00:36:32;7.60;99.90
22716;DHT22;11525;51.152;4.456;2023-03-16T00:38:58;7.80;99.90
22716;DHT22;11525;51.152;4.456;2023-03-16T00:41:24;7.80;99.90
22716;DHT22;11525;51.152;4.456;2023-03-16T00:43:50;7.80;99.90
22716;DHT22;11525;51.152;4.456;2023-03-16T00:46:16;7.60;99.90
22716;DHT22;11525;51.152;4.456;2023-03-16T00:48:45;7.60;99.90
22716;DHT22;11525;51.152;4.456;2023-03-16T00:51:14;7.50;99.90
22716;DHT22;11525;51.152;4.456;2023-03-16T00:53:41;7.60;99.90
22716;DHT22;11525;51.152;4.456;2023-03-16T00:56:08;7.70;99.90
22716;DHT22;11525;51.152;4.456;2023-03-16T00:58:35;7.60;99.90
22716;DHT22;11525;51.152;4.456;2023-03-16T01:01:07;7.50;99.90
22716;DHT22;11525;51.152;4.456;2023-03-16T01:03:33;7.50;99.90
22716;DHT22;11525;51.152;4.456;2023-03-16T01:06:11;7.40;99.90
22716;DHT22;11525;51.152;4.456;2023-03-16T01:08:38;7.40;99.90
22716;DHT22;11525;51.152;4.456;2023-03-16T01:11:10;7.50;99.90
22716;DHT22;11525;51.152;4.456;2023-03-16T01:13:38;7.60;99.90
22716;DHT22;11525;51.152;4.456;2023-03-16T01:16:04;7.50;99.90
22716;DHT22;11525;51.152;4.456;2023-03-16T01:18:30;7.50;99.90
22716;DHT22;11525;51.152;4.456;2023-03-16T01:21:04;7.50;99.90
22716;DHT22;11525;51.152;4.456;2023-03-16T01:23:30;7.50;99.90
22716;DHT22;11525;51.152;4.456;2023-03-16T01:25:57;7.70;99.90
22716;DHT22;11525;51.152;4.456;2023-03-16T01:28:25;7.70;99.90
22716;DHT22;11525;51.152;4.456;2023-03-16T01:30:53;7.50;99.90
22716;DHT22;11525;51.152;4.456;2023-03-16T01:33:23;7.70;99.90
22716;DHT22;11525;51.152;4.456;2023-03-16T01:35:54;7.70;99.90
22716;DHT22;11525;51.152;4.456;2023-03-16T01:38:20;7.60;99.90
22716;DHT22;11525;51.152;4.456;2023-03-16T01:40:47;7.50;99.90
22716;DHT22;11525;51.152;4.456;2023-03-16T01:43:16;7.60;99.90
22716;DHT22;11525;51.152;4.456;2023-03-16T01:56:57;7.70;99.90
22716;DHT22;11525;51.152;4.456;2023-03-16T01:59:31;7.70;99.90
22716;DHT22;11525;51.152;4.456;2023-03-16T02:01:58;7.60;99.90
22716;DHT22;11525;51.152;4.456;2023-03-16T02:05:28;7.70;99.90
22716;DHT22;11525;51.152;4.456;2023-03-16T02:07:27;7.80;99.90
22716;DHT22;11525;51.152;4.456;2023-03-16T02:09:57;7.70;99.90
22716;DHT22;11525;51.152;4.456;2023-03-16T02:12:24;7.90;99.90
22716;DHT22;11525;51.152;4.456;2023-03-16T02:14:50;7.90;99.90
22716;DHT22;11525;51.152;4.456;2023-03-16T02:17:22;7.90;99.90
22716;DHT22;11525;51.152;4.456;2023-03-16T02:22:20;8.00;99.90
22716;DHT22;11525;51.152;4.456;2023-03-16T02:24:52;7.90;99.90
22716;DHT22;11525;51.152;4.456;2023-03-16T02:30:25;7.60;99.90
22716;DHT22;11525;51.152;4.456;2023-03-16T02:32:52;7.70;99.90
22716;DHT22;11525;51.152;4.456;2023-03-16T02:35:19;7.60;99.90
22716;DHT22;11525;51.152;4.456;2023-03-16T02:37:45;7.60;99.90
22716;DHT22;11525;51.152;4.456;2023-03-16T02:40:23;7.80;99.90
22716;DHT22;11525;51.152;4.456;2023-03-16T02:42:55;7.90;99.90
22716;DHT22;11525;51.152;4.456;2023-03-16T02:45:24;8.00;99.90
22716;DHT22;11525;51.152;4.456;2023-03-16T02:47:51;8.00;99.90
22716;DHT22;11525;51.152;4.456;2023-03-16T02:50:18;7.90;99.90
22716;DHT22;11525;51.152;4.456;2023-03-16T02:52:43;8.00;99.90
22716;DHT22;11525;51.152;4.456;2023-03-16T02:55:09;8.00;99.90
22716;DHT22;11525;51.152;4.456;2023-03-16T02:57:35;7.90;99.90
22716;DHT22;11525;51.152;4.456;2023-03-16T03:00:01;7.90;99.90
22716;DHT22;11525;51.152;4.456;2023-03-16T03:02:30;7.50;99.90
22716;DHT22;11525;51.152;4.456;2023-03-16T03:04:57;7.50;99.90
22716;DHT22;11525;51.152;4.456;2023-03-16T03:07:22;7.30;99.90
22716;DHT22;11525;51.152;4.456;2023-03-16T03:09:57;7.40;99.90
22716;DHT22;11525;51.152;4.456;2023-03-16T03:12:23;7.40;99.90
22716;DHT22;11525;51.152;4.456;2023-03-16T03:14:49;7.30;99.90
22716;DHT22;11525;51.152;4.456;2023-03-16T03:17:14;7.30;99.90
22716;DHT22;11525;51.152;4.456;2023-03-16T03:19:40;7.30;99.90
22716;DHT22;11525;51.152;4.456;2023-03-16T03:22:06;7.00;99.90
22716;DHT22;11525;51.152;4.456;2023-03-16T03:24:33;7.00;99.90
22716;DHT22;11525;51.152;4.456;2023-03-16T03:26:59;7.00;99.90
22716;DHT22;11525;51.152;4.456;2023-03-16T03:29:26;6.90;99.90
22716;DHT22;11525;51.152;4.456;2023-03-16T03:32:05;6.90;99.90
22716;DHT22;11525;51.152;4.456;2023-03-16T03:34:32;7.00;99.90
22716;DHT22;11525;51.152;4.456;2023-03-16T03:36:58;6.80;99.90
22716;DHT22;11525;51.152;4.456;2023-03-16T03:39:24;6.80;99.90
22716;DHT22;11525;51.152;4.456;2023-03-16T03:41:50;6.80;99.90
22716;DHT22;11525;51.152;4.456;2023-03-16T03:44:20;6.80;99.90
22716;DHT22;11525;51.152;4.456;2023-03-16T03:46:46;6.90;99.90
22716;DHT22;11525;51.152;4.456;2023-03-16T03:49:12;6.90;99.90
22716;DHT22;11525;51.152;4.456;2023-03-16T03:51:38;6.70;99.90
22716;DHT22;11525;51.152;4.456;2023-03-16T03:54:06;6.80;99.90
22716;DHT22;11525;51.152;4.456;2023-03-16T03:56:32;6.80;99.90
22716;DHT22;11525;51.152;4.456;2023-03-16T03:58:57;6.80;99.90
22716;DHT22;11525;51.152;4.456;2023-03-16T04:01:23;6.80;99.90
22716;DHT22;11525;51.152;4.456;2023-03-16T04:03:49;6.90;99.90
22716;DHT22;11525;51.152;4.456;2023-03-16T04:06:15;6.90;99.90
22716;DHT22;11525;51.152;4.456;2023-03-16T04:08:41;6.80;99.90
22716;DHT22;11525;51.152;4.456;2023-03-16T04:11:07;6.80;99.90
22716;DHT22;11525;51.152;4.456;2023-03-16T04:13:33;6.70;99.90
22716;DHT22;11525;51.152;4.456;2023-03-16T04:16:01;6.90;99.90
22716;DHT22;11525;51.152;4.456;2023-03-16T04:18:28;7.00;99.90
22716;DHT22;11525;51.152;4.456;2023-03-16T04:20:54;6.90;99.90
22716;DHT22;11525;51.152;4.456;2023-03-16T04:23:20;7.00;99.90
22716;DHT22;11525;51.152;4.456;2023-03-16T04:25:46;6.80;99.90
22716;DHT22;11525;51.152;4.456;2023-03-16T04:28:12;6.80;99.90
22716;DHT22;11525;51.152;4.456;2023-03-16T04:30:38;6.80;99.90
22716;DHT22;11525;51.152;4.456;2023-03-16T04:33:04;6.80;99.90
22716;DHT22;11525;51.152;4.456;2023-03-16T04:35:29;6.90;99.90
22716;DHT22;11525;51.152;4.456;2023-03-16T04:37:56;6.80;99.90
22716;DHT22;11525;51.152;4.456;2023-03-16T04:40:22;6.90;99.90
22716;DHT22;11525;51.152;4.456;2023-03-16T04:42:47;6.90;99.90
22716;DHT22;11525;51.152;4.456;2023-03-16T04:45:15;6.80;99.90
22716;DHT22;11525;51.152;4.456;2023-03-16T04:47:42;6.70;99.90
22716;DHT22;11525;51.152;4.456;2023-03-16T04:50:08;6.60;99.90
22716;DHT22;11525;51.152;4.456;2023-03-16T04:52:35;6.50;99.90
22716;DHT22;11525;51.152;4.456;2023-03-16T04:55:01;6.50;99.90
22716;DHT22;11525;51.152;4.456;2023-03-16T04:57:26;6.60;99.90
22716;DHT22;11525;51.152;4.456;2023-03-16T04:59:52;6.70;99.90
22716;DHT22;11525;51.152;4.456;2023-03-16T05:02:18;6.70;99.90
22716;DHT22;11525;51.152;4.456;2023-03-16T05:04:44;6.60;99.90
22716;DHT22;11525;51.152;4.456;2023-03-16T05:07:10;6.50;99.90
22716;DHT22;11525;51.152;4.456;2023-03-16T05:09:36;6.50;99.90
22716;DHT22;11525;51.152;4.456;2023-03-16T05:12:02;6.60;99.90
22716;DHT22;11525;51.152;4.456;2023-03-16T05:14:28;6.60;99.90
22716;DHT22;11525;51.152;4.456;2023-03-16T05:16:53;6.40;99.90
22716;DHT22;11525;51.152;4.456;2023-03-16T05:19:19;6.40;99.90
22716;DHT22;11525;51.152;4.456;2023-03-16T05:21:44;6.40;99.90
22716;DHT22;11525;51.152;4.456;2023-03-16T05:24:10;6.40;99.90
22716;DHT22;11525;51.152;4.456;2023-03-16T05:26:37;6.40;99.90
22716;DHT22;11525;51.152;4.456;2023-03-16T05:29:03;6.30;99.90
22716;DHT22;11525;51.152;4.456;2023-03-16T05:31:29;6.30;99.90
22716;DHT22;11525;51.152;4.456;2023-03-16T05:33:58;6.50;99.90
22716;DHT22;11525;51.152;4.456;2023-03-16T05:36:24;6.50;99.90
22716;DHT22;11525;51.152;4.456;2023-03-16T05:38:50;6.50;99.90
22716;DHT22;11525;51.152;4.456;2023-03-16T05:41:16;6.60;99.90
22716;DHT22;11525;51.152;4.456;2023-03-16T05:43:43;6.60;99.90
22716;DHT22;11525;51.152;4.456;2023-03-16T05:46:09;6.70;99.90
22716;DHT22;11525;51.152;4.456;2023-03-16T05:48:35;6.80;99.90
22716;DHT22;11525;51.152;4.456;2023-03-16T05:51:02;6.90;99.90
22716;DHT22;11525;51.152;4.456;2023-03-16T05:53:31;7.00;99.90
22716;DHT22;11525;51.152;4.456;2023-03-16T05:55:57;6.90;99.90
22716;DHT22;11525;51.152;4.456;2023-03-16T05:58:22;7.00;99.90
22716;DHT22;11525;51.152;4.456;2023-03-16T06:00:48;6.90;99.90
22716;DHT22;11525;51.152;4.456;2023-03-16T06:03:15;7.00;99.90
22716;DHT22;11525;51.152;4.456;2023-03-16T06:05:42;7.00;99.90
22716;DHT22;11525;51.152;4.456;2023-03-16T06:08:07;7.10;99.90
22716;DHT22;11525;51.152;4.456;2023-03-16T06:10:34;7.20;99.90
22716;DHT22;11525;51.152;4.456;2023-03-16T06:13:00;7.10;99.90
22716;DHT22;11525;51.152;4.456;2023-03-16T06:15:26;7.10;99.90
22716;DHT22;11525;51.152;4.456;2023-03-16T06:17:55;7.10;99.90
22716;DHT22;11525;51.152;4.456;2023-03-16T06:20:20;7.30;99.90
22716;DHT22;11525;51.152;4.456;2023-03-16T06:22:46;7.20;99.90
22716;DHT22;11525;51.152;4.456;2023-03-16T06:25:14;7.30;99.90
22716;DHT22;11525;51.152;4.456;2023-03-16T06:27:40;7.30;99.90
22716;DHT22;11525;51.152;4.456;2023-03-16T06:30:07;7.50;99.90
22716;DHT22;11525;51.152;4.456;2023-03-16T06:32:34;7.60;99.90
22716;DHT22;11525;51.152;4.456;2023-03-16T06:35:01;7.60;99.90
22716;DHT22;11525;51.152;4.456;2023-03-16T06:37:28;7.70;99.90
22716;DHT22;11525;51.152;4.456;2023-03-16T06:39:54;7.50;99.90
22716;DHT22;11525;51.152;4.456;2023-03-16T06:42:20;7.50;99.90
22716;DHT22;11525;51.152;4.456;2023-03-16T06:44:46;7.50;99.90
22716;DHT22;11525;51.152;4.456;2023-03-16T06:47:11;7.50;99.90
22716;DHT22;11525;51.152;4.456;2023-03-16T06:49:38;7.60;99.90
22716;DHT22;11525;51.152;4.456;2023-03-16T06:52:04;7.50;99.90
22716;DHT22;11525;51.152;4.456;2023-03-16T06:54:29;7.50;99.90
22716;DHT22;11525;51.152;4.456;2023-03-16T06:56:58;7.70;99.90
22716;DHT22;11525;51.152;4.456;2023-03-16T06:59:24;7.80;99.90
22716;DHT22;11525;51.152;4.456;2023-03-16T07:01:49;7.70;99.90
22716;DHT22;11525;51.152;4.456;2023-03-16T07:04:15;7.80;99.90
22716;DHT22;11525;51.152;4.456;2023-03-16T07:06:41;7.70;99.90
22716;DHT22;11525;51.152;4.456;2023-03-16T07:09:07;7.70;99.90
22716;DHT22;11525;51.152;4.456;2023-03-16T07:11:33;7.90;99.90
22716;DHT22;11525;51.152;4.456;2023-03-16T07:13:59;8.10;99.90
22716;DHT22;11525;51.152;4.456;2023-03-16T07:16:24;8.30;99.90
22716;DHT22;11525;51.152;4.456;2023-03-16T07:18:50;8.50;99.90
22716;DHT22;11525;51.152;4.456;2023-03-16T07:21:16;8.50;99.90
22716;DHT22;11525;51.152;4.456;2023-03-16T07:23:42;8.50;99.90
22716;DHT22;11525;51.152;4.456;2023-03-16T07:26:09;8.40;99.90
22716;DHT22;11525;51.152;4.456;2023-03-16T07:28:37;8.30;99.90
22716;DHT22;11525;51.152;4.456;2023-03-16T07:31:03;8.20;99.90
22716;DHT22;11525;51.152;4.456;2023-03-16T07:33:30;8.10;99.90
22716;DHT22;11525;51.152;4.456;2023-03-16T07:35:56;8.00;99.90
22716;DHT22;11525;51.152;4.456;2023-03-16T07:38:22;8.20;99.90
22716;DHT22;11525;51.152;4.456;2023-03-16T07:40:48;8.30;99.90
22716;DHT22;11525;51.152;4.456;2023-03-16T07:43:14;8.40;99.90
22716;DHT22;11525;51.152;4.456;2023-03-16T07:45:40;8.70;99.90
22716;DHT22;11525;51.152;4.456;2023-03-16T07:48:06;9.00;99.90
22716;DHT22;11525;51.152;4.456;2023-03-16T07:50:31;8.90;99.90
22716;DHT22;11525;51.152;4.456;2023-03-16T07:52:57;9.10;99.90
22716;DHT22;11525;51.152;4.456;2023-03-16T07:55:23;9.20;99.90
22716;DHT22;11525;51.152;4.456;2023-03-16T07:57:49;9.40;99.90
22716;DHT22;11525;51.152;4.456;2023-03-16T08:00:15;9.80;99.90
22716;DHT22;11525;51.152;4.456;2023-03-16T08:02:41;10.00;99.90
22716;DHT22;11525;51.152;4.456;2023-03-16T08:05:07;10.20;99.90
22716;DHT22;11525;51.152;4.456;2023-03-16T08:07:37;10.10;99.90
22716;DHT22;11525;51.152;4.456;2023-03-16T08:10:03;10.60;99.90
22716;DHT22;11525;51.152;4.456;2023-03-16T08:12:29;10.80;99.90
22716;DHT22;11525;51.152;4.456;2023-03-16T08:14:54;11.20;99.90
22716;DHT22;11525;51.152;4.456;2023-03-16T08:17:20;11.40;99.90
22716;DHT22;11525;51.152;4.456;2023-03-16T08:19:46;11.60;99.90
22716;DHT22;11525;51.152;4.456;2023-03-16T08:22:11;11.60;99.90
22716;DHT22;11525;51.152;4.456;2023-03-16T08:24:37;11.80;99.90
22716;DHT22;11525;51.152;4.456;2023-03-16T08:27:03;11.80;99.90
22716;DHT22;11525;51.152;4.456;2023-03-16T08:29:29;11.50;99.90
22716;DHT22;11525;51.152;4.456;2023-03-16T08:31:55;11.90;99.90
22716;DHT22;11525;51.152;4.456;2023-03-16T08:34:23;12.40;99.90
22716;DHT22;11525;51.152;4.456;2023-03-16T08:36:49;13.20;99.90
22716;DHT22;11525;51.152;4.456;2023-03-16T08:39:15;14.10;99.90
22716;DHT22;11525;51.152;4.456;2023-03-16T08:41:41;15.00;99.90
22716;DHT22;11525;51.152;4.456;2023-03-16T08:44:08;15.90;99.90
22716;DHT22;11525;51.152;4.456;2023-03-16T08:46:35;16.40;99.30
22716;DHT22;11525;51.152;4.456;2023-03-16T08:49:00;16.80;97.00
22716;DHT22;11525;51.152;4.456;2023-03-16T08:51:27;17.20;95.70
22716;DHT22;11525;51.152;4.456;2023-03-16T08:53:54;17.70;95.00
22716;DHT22;11525;51.152;4.456;2023-03-16T08:56:20;17.90;92.20
22716;DHT22;11525;51.152;4.456;2023-03-16T08:58:46;18.80;91.80
22716;DHT22;11525;51.152;4.456;2023-03-16T09:01:14;18.60;90.60
22716;DHT22;11525;51.152;4.456;2023-03-16T09:03:40;18.40;88.60
22716;DHT22;11525;51.152;4.456;2023-03-16T09:06:11;18.50;88.50
22716;DHT22;11525;51.152;4.456;2023-03-16T09:08:38;19.10;86.50
22716;DHT22;11525;51.152;4.456;2023-03-16T09:11:15;19.10;84.40
22716;DHT22;11525;51.152;4.456;2023-03-16T09:13:41;18.20;83.80
22716;DHT22;11525;51.152;4.456;2023-03-16T09:16:09;17.30;87.80
22716;DHT22;11525;51.152;4.456;2023-03-16T09:18:35;16.80;90.00
22716;DHT22;11525;51.152;4.456;2023-03-16T09:21:05;16.10;90.70
22716;DHT22;11525;51.152;4.456;2023-03-16T09:23:33;15.30;91.70
22716;DHT22;11525;51.152;4.456;2023-03-16T09:26:01;15.40;91.60
22716;DHT22;11525;51.152;4.456;2023-03-16T09:28:29;15.60;91.10
22716;DHT22;11525;51.152;4.456;2023-03-16T09:30:56;15.50;90.90
22716;DHT22;11525;51.152;4.456;2023-03-16T09:33:24;15.00;91.00
22716;DHT22;11525;51.152;4.456;2023-03-16T09:35:50;15.10;91.50
22716;DHT22;11525;51.152;4.456;2023-03-16T09:38:19;14.60;92.10
22716;DHT22;11525;51.152;4.456;2023-03-16T09:40:47;14.00;94.00
22716;DHT22;11525;51.152;4.456;2023-03-16T09:46:44;14.60;92.90
22716;DHT22;11525;51.152;4.456;2023-03-16T09:49:15;14.80;91.90
22716;DHT22;11525;51.152;4.456;2023-03-16T09:51:49;14.70;91.60
22716;DHT22;11525;51.152;4.456;2023-03-16T09:54:36;14.40;91.70
22716;DHT22;11525;51.152;4.456;2023-03-16T09:57:04;14.60;92.40
22716;DHT22;11525;51.152;4.456;2023-03-16T09:59:38;15.50;90.90
22716;DHT22;11525;51.152;4.456;2023-03-16T10:02:18;15.60;88.90
22716;DHT22;11525;51.152;4.456;2023-03-16T10:05:09;16.70;86.20
22716;DHT22;11525;51.152;4.456;2023-03-16T10:12:44;17.80;81.40
22716;DHT22;11525;51.152;4.456;2023-03-16T10:15:17;18.50;74.90
22716;DHT22;11525;51.152;4.456;2023-03-16T10:17:55;19.00;73.10
22716;DHT22;11525;51.152;4.456;2023-03-16T10:20:24;19.90;71.00
22716;DHT22;11525;51.152;4.456;2023-03-16T10:22:52;21.40;67.20
22716;DHT22;11525;51.152;4.456;2023-03-16T10:25:26;22.90;60.00
22716;DHT22;11525;51.152;4.456;2023-03-16T10:27:55;22.70;55.60
22716;DHT22;11525;51.152;4.456;2023-03-16T10:30:28;22.40;56.60
22716;DHT22;11525;51.152;4.456;2023-03-16T10:33:11;22.00;55.80
22716;DHT22;11525;51.152;4.456;2023-03-16T10:35:40;21.00;56.00
22716;DHT22;11525;51.152;4.456;2023-03-16T10:38:08;20.10;57.50
22716;DHT22;11525;51.152;4.456;2023-03-16T10:40:51;19.90;58.50
22716;DHT22;11525;51.152;4.456;2023-03-16T10:43:17;20.10;57.00
22716;DHT22;11525;51.152;4.456;2023-03-16T10:45:44;19.70;57.40
22716;DHT22;11525;51.152;4.456;2023-03-16T10:48:19;19.30;58.80
22716;DHT22;11525;51.152;4.456;2023-03-16T10:50:50;20.00;58.00
22716;DHT22;11525;51.152;4.456;2023-03-16T10:53:29;20.50;58.10
22716;DHT22;11525;51.152;4.456;2023-03-16T10:56:01;20.40;56.80
22716;DHT22;11525;51.152;4.456;2023-03-16T10:58:33;19.80;58.80
22716;DHT22;11525;51.152;4.456;2023-03-16T11:01:10;18.70;61.90
22716;DHT22;11525;51.152;4.456;2023-03-16T11:03:39;18.40;63.90
22716;DHT22;11525;51.152;4.456;2023-03-16T11:06:19;17.90;64.30
22716;DHT22;11525;51.152;4.456;2023-03-16T11:08:46;17.80;63.20
22716;DHT22;11525;51.152;4.456;2023-03-16T11:13:58;17.20;63.80
22716;DHT22;11525;51.152;4.456;2023-03-16T11:16:46;16.90;64.30
22716;DHT22;11525;51.152;4.456;2023-03-16T11:19:39;16.30;65.20
22716;DHT22;11525;51.152;4.456;2023-03-16T11:22:23;16.40;68.20
22716;DHT22;11525;51.152;4.456;2023-03-16T11:25:13;16.50;66.10
22716;DHT22;11525;51.152;4.456;2023-03-16T11:31:05;16.50;67.50
22716;DHT22;11525;51.152;4.456;2023-03-16T11:33:35;16.10;67.50
22716;DHT22;11525;51.152;4.456;2023-03-16T11:41:59;16.30;68.00
22716;DHT22;11525;51.152;4.456;2023-03-16T11:45:05;16.10;67.70
22716;DHT22;11525;51.152;4.456;2023-03-16T11:53:23;16.10;68.70
22716;DHT22;11525;51.152;4.456;2023-03-16T11:59:04;16.10;67.10
22716;DHT22;11525;51.152;4.456;2023-03-16T12:01:37;15.90;67.20
22716;DHT22;11525;51.152;4.456;2023-03-16T12:09:49;16.00;67.00
22716;DHT22;11525;51.152;4.456;2023-03-16T12:17:35;15.50;69.20
22716;DHT22;11525;51.152;4.456;2023-03-16T12:20:19;15.40;69.00
22716;DHT22;11525;51.152;4.456;2023-03-16T12:22:58;15.60;69.50
22716;DHT22;11525;51.152;4.456;2023-03-16T12:25:31;15.70;66.90
22716;DHT22;11525;51.152;4.456;2023-03-16T12:28:01;15.70;67.30
22716;DHT22;11525;51.152;4.456;2023-03-16T12:30:45;15.70;66.60
22716;DHT22;11525;51.152;4.456;2023-03-16T12:44:56;15.10;70.00
22716;DHT22;11525;51.152;4.456;2023-03-16T12:47:49;15.20;69.80
22716;DHT22;11525;51.152;4.456;2023-03-16T12:50:18;15.40;69.40
22716;DHT22;11525;51.152;4.456;2023-03-16T12:52:49;15.50;69.40
22716;DHT22;11525;51.152;4.456;2023-03-16T12:55:17;15.50;67.80
22716;DHT22;11525;51.152;4.456;2023-03-16T12:57:45;15.50;67.50
22716;DHT22;11525;51.152;4.456;2023-03-16T13:00:13;15.40;67.60
22716;DHT22;11525;51.152;4.456;2023-03-16T13:02:53;15.50;68.60
22716;DHT22;11525;51.152;4.456;2023-03-16T13:08:08;15.20;66.20
22716;DHT22;11525;51.152;4.456;2023-03-16T13:10:35;15.20;66.20
22716;DHT22;11525;51.152;4.456;2023-03-16T13:13:15;15.30;66.50
22716;DHT22;11525;51.152;4.456;2023-03-16T13:15:42;15.50;66.90
22716;DHT22;11525;51.152;4.456;2023-03-16T13:20:57;15.70;65.80
22716;DHT22;11525;51.152;4.456;2023-03-16T13:23:51;15.80;65.80
22716;DHT22;11525;51.152;4.456;2023-03-16T13:31:52;15.80;65.50
22716;DHT22;11525;51.152;4.456;2023-03-16T13:34:28;15.70;65.20
22716;DHT22;11525;51.152;4.456;2023-03-16T13:36:56;15.60;65.70
22716;DHT22;11525;51.152;4.456;2023-03-16T13:39:27;15.40;66.10
22716;DHT22;11525;51.152;4.456;2023-03-16T13:42:00;15.20;66.40
22716;DHT22;11525;51.152;4.456;2023-03-16T13:44:27;15.30;67.50
22716;DHT22;11525;51.152;4.456;2023-03-16T13:46:52;15.50;67.50
22716;DHT22;11525;51.152;4.456;2023-03-16T13:49:18;15.50;67.00
22716;DHT22;11525;51.152;4.456;2023-03-16T13:51:45;15.60;66.30
22716;DHT22;11525;51.152;4.456;2023-03-16T13:54:31;15.60;65.60
22716;DHT22;11525;51.152;4.456;2023-03-16T13:56:58;15.40;64.90
22716;DHT22;11525;51.152;4.456;2023-03-16T13:59:27;15.40;66.10
22716;DHT22;11525;51.152;4.456;2023-03-16T14:01:55;15.50;66.50
22716;DHT22;11525;51.152;4.456;2023-03-16T14:04:25;15.50;66.50
22716;DHT22;11525;51.152;4.456;2023-03-16T14:06:56;15.60;65.70
22716;DHT22;11525;51.152;4.456;2023-03-16T14:09:24;15.50;67.20
22716;DHT22;11525;51.152;4.456;2023-03-16T14:11:52;15.70;65.10
22716;DHT22;11525;51.152;4.456;2023-03-16T14:14:29;15.60;64.20
22716;DHT22;11525;51.152;4.456;2023-03-16T14:17:07;15.90;63.80
22716;DHT22;11525;51.152;4.456;2023-03-16T14:19:42;15.90;63.60
22716;DHT22;11525;51.152;4.456;2023-03-16T14:22:21;15.80;64.70
22716;DHT22;11525;51.152;4.456;2023-03-16T14:24:53;15.80;66.30
22716;DHT22;11525;51.152;4.456;2023-03-16T14:27:42;16.00;64.40
22716;DHT22;11525;51.152;4.456;2023-03-16T14:30:22;16.00;65.10
22716;DHT22;11525;51.152;4.456;2023-03-16T14:33:00;15.80;66.40
22716;DHT22;11525;51.152;4.456;2023-03-16T14:35:52;16.00;66.50
22716;DHT22;11525;51.152;4.456;2023-03-16T14:41:01;16.20;64.80
22716;DHT22;11525;51.152;4.456;2023-03-16T14:43:30;16.30;63.60
22716;DHT22;11525;51.152;4.456;2023-03-16T14:45:59;16.20;63.90
22716;DHT22;11525;51.152;4.456;2023-03-16T14:48:25;16.20;64.70
22716;DHT22;11525;51.152;4.456;2023-03-16T14:50:56;16.40;65.50
22716;DHT22;11525;51.152;4.456;2023-03-16T14:53:23;16.50;64.80
22716;DHT22;11525;51.152;4.456;2023-03-16T14:55:55;16.50;64.80
22716;DHT22;11525;51.152;4.456;2023-03-16T14:58:24;16.50;64.50
22716;DHT22;11525;51.152;4.456;2023-03-16T15:00:50;16.80;63.60
22716;DHT22;11525;51.152;4.456;2023-03-16T15:03:20;16.70;63.60
22716;DHT22;11525;51.152;4.456;2023-03-16T15:05:48;16.70;64.40
22716;DHT22;11525;51.152;4.456;2023-03-16T15:08:27;16.70;64.20
22716;DHT22;11525;51.152;4.456;2023-03-16T15:10:57;16.50;64.20
22716;DHT22;11525;51.152;4.456;2023-03-16T15:13:25;16.60;64.00
22716;DHT22;11525;51.152;4.456;2023-03-16T15:16:18;16.60;65.20
22716;DHT22;11525;51.152;4.456;2023-03-16T15:18:44;16.80;65.30
22716;DHT22;11525;51.152;4.456;2023-03-16T15:21:16;16.80;65.10
22716;DHT22;11525;51.152;4.456;2023-03-16T15:23:43;16.60;65.20
22716;DHT22;11525;51.152;4.456;2023-03-16T15:26:14;16.70;64.50
22716;DHT22;11525;51.152;4.456;2023-03-16T15:28:40;16.70;63.00
22716;DHT22;11525;51.152;4.456;2023-03-16T15:31:06;16.60;63.00
22716;DHT22;11525;51.152;4.456;2023-03-16T15:33:32;16.50;63.30
22716;DHT22;11525;51.152;4.456;2023-03-16T15:36:00;16.50;64.30
22716;DHT22;11525;51.152;4.456;2023-03-16T15:38:31;16.60;63.70
22716;DHT22;11525;51.152;4.456;2023-03-16T15:40:58;16.40;63.80
22716;DHT22;11525;51.152;4.456;2023-03-16T15:43:26;16.40;63.70
22716;DHT22;11525;51.152;4.456;2023-03-16T15:45:54;16.50;64.40
22716;DHT22;11525;51.152;4.456;2023-03-16T15:48:22;16.40;65.00
22716;DHT22;11525;51.152;4.456;2023-03-16T15:50:56;16.20;65.40
22716;DHT22;11525;51.152;4.456;2023-03-16T15:55:55;16.30;66.20
22716;DHT22;11525;51.152;4.456;2023-03-16T15:58:27;16.20;66.70
22716;DHT22;11525;51.152;4.456;2023-03-16T16:00:55;16.20;66.40
22716;DHT22;11525;51.152;4.456;2023-03-16T16:03:23;16.20;67.00
22716;DHT22;11525;51.152;4.456;2023-03-16T16:05:49;16.00;68.70
22716;DHT22;11525;51.152;4.456;2023-03-16T16:08:15;16.00;68.00
22716;DHT22;11525;51.152;4.456;2023-03-16T16:10:41;16.00;67.60
22716;DHT22;11525;51.152;4.456;2023-03-16T16:13:21;15.90;67.40
22716;DHT22;11525;51.152;4.456;2023-03-16T16:15:47;15.90;66.80
22716;DHT22;11525;51.152;4.456;2023-03-16T16:20:52;15.90;66.70
22716;DHT22;11525;51.152;4.456;2023-03-16T16:23:18;16.00;66.80
22716;DHT22;11525;51.152;4.456;2023-03-16T16:25:44;15.90;67.20
22716;DHT22;11525;51.152;4.456;2023-03-16T16:28:20;15.80;67.20
22716;DHT22;11525;51.152;4.456;2023-03-16T16:30:46;15.80;66.90
22716;DHT22;11525;51.152;4.456;2023-03-16T16:33:27;15.70;67.70
22716;DHT22;11525;51.152;4.456;2023-03-16T16:36:01;15.60;68.90
22716;DHT22;11525;51.152;4.456;2023-03-16T16:38:28;15.60;67.60
22716;DHT22;11525;51.152;4.456;2023-03-16T16:40:55;15.60;66.50
22716;DHT22;11525;51.152;4.456;2023-03-16T16:43:36;15.60;66.50
22716;DHT22;11525;51.152;4.456;2023-03-16T16:46:13;15.50;69.20
22716;DHT22;11525;51.152;4.456;2023-03-16T16:48:44;15.40;68.10
22716;DHT22;11525;51.152;4.456;2023-03-16T16:51:23;15.50;67.90
22716;DHT22;11525;51.152;4.456;2023-03-16T16:53:52;15.30;68.30
22716;DHT22;11525;51.152;4.456;2023-03-16T16:56:27;15.40;68.20
22716;DHT22;11525;51.152;4.456;2023-03-16T16:58:58;15.30;69.00
22716;DHT22;11525;51.152;4.456;2023-03-16T17:01:28;15.30;73.60
22716;DHT22;11525;51.152;4.456;2023-03-16T17:03:55;15.20;71.20
22716;DHT22;11525;51.152;4.456;2023-03-16T17:06:21;15.10;70.80
22716;DHT22;11525;51.152;4.456;2023-03-16T17:08:47;15.00;71.20
22716;DHT22;11525;51.152;4.456;2023-03-16T17:11:28;14.90;72.20
22716;DHT22;11525;51.152;4.456;2023-03-16T17:13:57;14.80;72.90
22716;DHT22;11525;51.152;4.456;2023-03-16T17:16:24;14.70;73.60
22716;DHT22;11525;51.152;4.456;2023-03-16T17:18:53;14.50;74.30